sensor_id;sensor_type;location;lat;lon;timestamp;P1;durP1;ratioP1;P2;durP2;ratioP2
68803;SDS011;55787;52.678;13.314;2023-10-19T00:01:15;18.95;;;8.00;;
68803;SDS011;55787;52.678;13.314;2023-10-19T00:03:45;18.40;;;7.15;;
68803;SDS011;55787;52.678;13.314;2023-10-19T00:06:11;18.85;;;7.70;;
68803;SDS011;55787;52.678;13.314;2023-10-19T00:08:38;18.07;;;7.47;;
68803;SDS011;55787;52.678;13.314;2023-10-19T00:11:10;18.38;;;7.60;;
68803;SDS011;55787;52.678;13.314;2023-10-19T00:13:47;18.58;;;7.47;;
68803;SDS011;55787;52.678;13.314;2023-10-19T00:16:20;18.60;;;7.80;;
68803;SDS011;55787;52.678;13.314;2023-10-19T00:18:55;17.90;;;7.60;;
68803;SDS011;55787;52.678;13.314;2023-10-19T00:21:26;17.73;;;6.97;;
68803;SDS011;55787;52.678;13.314;2023-10-19T00:23:57;19.35;;;7.85;;
68803;SDS011;55787;52.678;13.314;2023-10-19T00:26:25;19.17;;;8.18;;
68803;SDS011;55787;52.678;13.314;2023-10-19T00:28:53;18.75;;;7.53;;
68803;SDS011;55787;52.678;13.314;2023-10-19T00:31:22;17.38;;;7.05;;
68803;SDS011;55787;52.678;13.314;2023-10-19T00:33:55;21.67;;;7.80;;
68803;SDS011;55787;52.678;13.314;2023-10-19T00:36:22;19.55;;;7.85;;
68803;SDS011;55787;52.678;13.314;2023-10-19T00:38:50;17.75;;;7.47;;
68803;SDS011;55787;52.678;13.314;2023-10-19T00:41:22;22.50;;;8.63;;
68803;SDS011;55787;52.678;13.314;2023-10-19T00:43:57;18.50;;;7.75;;
68803;SDS011;55787;52.678;13.314;2023-10-19T00:46:31;17.13;;;7.33;;
68803;SDS011;55787;52.678;13.314;2023-10-19T00:49:18;20.00;;;7.53;;
68803;SDS011;55787;52.678;13.314;2023-10-19T00:51:51;19.52;;;8.20;;
68803;SDS011;55787;52.678;13.314;2023-10-19T00:54:26;19.52;;;7.63;;
68803;SDS011;55787;52.678;13.314;2023-10-19T00:57:02;19.60;;;7.53;;
68803;SDS011;55787;52.678;13.314;2023-10-19T00:59:37;20.10;;;7.70;;
68803;SDS011;55787;52.678;13.314;2023-10-19T01:02:25;21.05;;;7.60;;
68803;SDS011;55787;52.678;13.314;2023-10-19T01:04:52;19.92;;;7.68;;
68803;SDS011;55787;52.678;13.314;2023-10-19T01:07:23;18.92;;;7.57;;
68803;SDS011;55787;52.678;13.314;2023-10-19T01:09:54;22.13;;;8.45;;
68803;SDS011;55787;52.678;13.314;2023-10-19T01:12:23;21.07;;;7.77;;
68803;SDS011;55787;52.678;13.314;2023-10-19T01:15:14;20.38;;;8.23;;
68803;SDS011;55787;52.678;13.314;2023-10-19T01:17:55;18.77;;;7.78;;
68803;SDS011;55787;52.678;13.314;2023-10-19T01:20:26;19.48;;;7.68;;
68803;SDS011;55787;52.678;13.314;2023-10-19T01:23:03;21.20;;;8.05;;
68803;SDS011;55787;52.678;13.314;2023-10-19T01:28:28;19.42;;;8.35;;
68803;SDS011;55787;52.678;13.314;2023-10-19T01:31:09;18.73;;;7.57;;
68803;SDS011;55787;52.678;13.314;2023-10-19T01:33:58;20.15;;;8.18;;
68803;SDS011;55787;52.678;13.314;2023-10-19T01:36:27;22.02;;;8.45;;
68803;SDS011;55787;52.678;13.314;2023-10-19T01:38:54;20.53;;;7.60;;
68803;SDS011;55787;52.678;13.314;2023-10-19T01:41:24;20.85;;;8.50;;
68803;SDS011;55787;52.678;13.314;2023-10-19T01:43:53;21.38;;;8.07;;
68803;SDS011;55787;52.678;13.314;2023-10-19T01:46:21;20.77;;;8.25;;
68803;SDS011;55787;52.678;13.314;2023-10-19T01:48:56;21.02;;;8.43;;
68803;SDS011;55787;52.678;13.314;2023-10-19T01:51:23;22.00;;;8.57;;
68803;SDS011;55787;52.678;13.314;2023-10-19T01:53:52;21.83;;;8.32;;
68803;SDS011;55787;52.678;13.314;2023-10-19T01:56:22;19.35;;;7.88;;
68803;SDS011;55787;52.678;13.314;2023-10-19T01:58:49;20.63;;;8.73;;
68803;SDS011;55787;52.678;13.314;2023-10-19T02:01:21;21.90;;;8.75;;
68803;SDS011;55787;52.678;13.314;2023-10-19T02:03:55;23.20;;;9.00;;
68803;SDS011;55787;52.678;13.314;2023-10-19T02:06:27;19.17;;;7.80;;
68803;SDS011;55787;52.678;13.314;2023-10-19T02:09:11;19.08;;;8.48;;
68803;SDS011;55787;52.678;13.314;2023-10-19T02:11:48;23.13;;;8.95;;
68803;SDS011;55787;52.678;13.314;2023-10-19T02:14:19;22.10;;;8.68;;
68803;SDS011;55787;52.678;13.314;2023-10-19T02:16:50;21.63;;;8.60;;
68803;SDS011;55787;52.678;13.314;2023-10-19T02:19:26;24.20;;;8.73;;
68803;SDS011;55787;52.678;13.314;2023-10-19T02:22:03;21.88;;;8.77;;
68803;SDS011;55787;52.678;13.314;2023-10-19T02:24:31;22.33;;;8.45;;
68803;SDS011;55787;52.678;13.314;2023-10-19T02:26:59;21.90;;;8.85;;
68803;SDS011;55787;52.678;13.314;2023-10-19T02:29:27;20.90;;;9.10;;
68803;SDS011;55787;52.678;13.314;2023-10-19T02:31:54;21.40;;;8.82;;
68803;SDS011;55787;52.678;13.314;2023-10-19T02:34:22;22.35;;;8.48;;
68803;SDS011;55787;52.678;13.314;2023-10-19T02:36:49;21.65;;;8.90;;
68803;SDS011;55787;52.678;13.314;2023-10-19T02:39:16;20.77;;;8.52;;
68803;SDS011;55787;52.678;13.314;2023-10-19T02:41:46;21.53;;;8.50;;
68803;SDS011;55787;52.678;13.314;2023-10-19T02:44:19;21.75;;;8.40;;
68803;SDS011;55787;52.678;13.314;2023-10-19T02:46:52;20.05;;;8.93;;
68803;SDS011;55787;52.678;13.314;2023-10-19T02:49:25;21.85;;;8.77;;
68803;SDS011;55787;52.678;13.314;2023-10-19T02:51:53;21.80;;;8.70;;
68803;SDS011;55787;52.678;13.314;2023-10-19T02:54:21;21.83;;;8.83;;
68803;SDS011;55787;52.678;13.314;2023-10-19T02:56:51;24.35;;;9.88;;
68803;SDS011;55787;52.678;13.314;2023-10-19T02:59:20;21.40;;;9.23;;
68803;SDS011;55787;52.678;13.314;2023-10-19T03:01:50;22.15;;;9.70;;
68803;SDS011;55787;52.678;13.314;2023-10-19T03:04:18;21.77;;;9.05;;
68803;SDS011;55787;52.678;13.314;2023-10-19T03:06:45;24.83;;;9.00;;
68803;SDS011;55787;52.678;13.314;2023-10-19T03:09:11;21.95;;;9.05;;
68803;SDS011;55787;52.678;13.314;2023-10-19T03:12:10;22.45;;;9.27;;
68803;SDS011;55787;52.678;13.314;2023-10-19T03:14:39;23.65;;;10.02;;
68803;SDS011;55787;52.678;13.314;2023-10-19T03:17:12;21.83;;;9.70;;
68803;SDS011;55787;52.678;13.314;2023-10-19T03:19:39;21.23;;;9.17;;
68803;SDS011;55787;52.678;13.314;2023-10-19T03:22:06;25.10;;;9.80;;
68803;SDS011;55787;52.678;13.314;2023-10-19T03:24:35;22.25;;;9.80;;
68803;SDS011;55787;52.678;13.314;2023-10-19T03:27:03;23.15;;;9.55;;
68803;SDS011;55787;52.678;13.314;2023-10-19T03:29:40;23.35;;;9.68;;
68803;SDS011;55787;52.678;13.314;2023-10-19T03:32:12;22.63;;;10.10;;
68803;SDS011;55787;52.678;13.314;2023-10-19T03:34:39;22.48;;;9.35;;
68803;SDS011;55787;52.678;13.314;2023-10-19T03:37:09;23.45;;;9.45;;
68803;SDS011;55787;52.678;13.314;2023-10-19T03:39:41;23.20;;;9.75;;
68803;SDS011;55787;52.678;13.314;2023-10-19T03:42:08;24.60;;;10.05;;
68803;SDS011;55787;52.678;13.314;2023-10-19T03:44:34;26.17;;;10.10;;
68803;SDS011;55787;52.678;13.314;2023-10-19T03:47:07;21.48;;;9.32;;
68803;SDS011;55787;52.678;13.314;2023-10-19T03:49:38;25.02;;;9.93;;
68803;SDS011;55787;52.678;13.314;2023-10-19T03:52:06;24.23;;;9.82;;
68803;SDS011;55787;52.678;13.314;2023-10-19T03:54:36;24.08;;;10.35;;
68803;SDS011;55787;52.678;13.314;2023-10-19T03:57:06;23.17;;;9.67;;
68803;SDS011;55787;52.678;13.314;2023-10-19T03:59:38;22.10;;;10.13;;
68803;SDS011;55787;52.678;13.314;2023-10-19T04:02:05;25.00;;;10.23;;
68803;SDS011;55787;52.678;13.314;2023-10-19T04:04:43;23.02;;;10.18;;
68803;SDS011;55787;52.678;13.314;2023-10-19T04:07:10;24.50;;;10.30;;
68803;SDS011;55787;52.678;13.314;2023-10-19T04:09:44;24.33;;;10.07;;
68803;SDS011;55787;52.678;13.314;2023-10-19T04:12:29;23.35;;;10.00;;
68803;SDS011;55787;52.678;13.314;2023-10-19T04:14:57;23.42;;;8.95;;
68803;SDS011;55787;52.678;13.314;2023-10-19T04:17:35;24.13;;;10.13;;
68803;SDS011;55787;52.678;13.314;2023-10-19T04:20:06;24.33;;;9.40;;
68803;SDS011;55787;52.678;13.314;2023-10-19T04:22:46;24.60;;;10.23;;
68803;SDS011;55787;52.678;13.314;2023-10-19T04:25:14;24.33;;;10.27;;
68803;SDS011;55787;52.678;13.314;2023-10-19T04:27:52;25.48;;;11.10;;
68803;SDS011;55787;52.678;13.314;2023-10-19T04:30:19;24.65;;;10.20;;
68803;SDS011;55787;52.678;13.314;2023-10-19T04:32:49;25.33;;;10.88;;
68803;SDS011;55787;52.678;13.314;2023-10-19T04:35:19;26.37;;;10.80;;
68803;SDS011;55787;52.678;13.314;2023-10-19T04:37:49;25.73;;;10.93;;
68803;SDS011;55787;52.678;13.314;2023-10-19T04:40:19;23.83;;;10.57;;
68803;SDS011;55787;52.678;13.314;2023-10-19T04:42:47;21.80;;;9.82;;
68803;SDS011;55787;52.678;13.314;2023-10-19T04:45:15;24.98;;;10.77;;
68803;SDS011;55787;52.678;13.314;2023-10-19T04:47:42;23.10;;;9.73;;
68803;SDS011;55787;52.678;13.314;2023-10-19T04:50:09;27.60;;;10.45;;
68803;SDS011;55787;52.678;13.314;2023-10-19T04:52:37;26.58;;;11.10;;
68803;SDS011;55787;52.678;13.314;2023-10-19T04:55:04;26.35;;;10.88;;
68803;SDS011;55787;52.678;13.314;2023-10-19T04:57:31;26.20;;;10.80;;
68803;SDS011;55787;52.678;13.314;2023-10-19T04:59:58;25.53;;;11.03;;
68803;SDS011;55787;52.678;13.314;2023-10-19T05:02:25;26.65;;;10.23;;
68803;SDS011;55787;52.678;13.314;2023-10-19T05:04:51;22.00;;;9.68;;
68803;SDS011;55787;52.678;13.314;2023-10-19T05:07:18;26.85;;;10.48;;
68803;SDS011;55787;52.678;13.314;2023-10-19T05:09:45;25.73;;;10.68;;
68803;SDS011;55787;52.678;13.314;2023-10-19T05:12:13;28.87;;;11.87;;
68803;SDS011;55787;52.678;13.314;2023-10-19T05:14:41;25.23;;;10.95;;
68803;SDS011;55787;52.678;13.314;2023-10-19T05:17:09;24.75;;;10.50;;
68803;SDS011;55787;52.678;13.314;2023-10-19T05:19:36;25.67;;;11.07;;
68803;SDS011;55787;52.678;13.314;2023-10-19T05:22:07;24.17;;;9.95;;
68803;SDS011;55787;52.678;13.314;2023-10-19T05:24:35;24.97;;;11.07;;
68803;SDS011;55787;52.678;13.314;2023-10-19T05:27:02;24.60;;;10.70;;
68803;SDS011;55787;52.678;13.314;2023-10-19T05:29:33;25.30;;;11.23;;
68803;SDS011;55787;52.678;13.314;2023-10-19T05:31:59;25.00;;;10.32;;
68803;SDS011;55787;52.678;13.314;2023-10-19T05:34:27;26.27;;;10.48;;
68803;SDS011;55787;52.678;13.314;2023-10-19T05:36:56;25.37;;;11.23;;
68803;SDS011;55787;52.678;13.314;2023-10-19T05:39:25;27.15;;;11.60;;
68803;SDS011;55787;52.678;13.314;2023-10-19T05:41:55;27.35;;;11.20;;
68803;SDS011;55787;52.678;13.314;2023-10-19T05:44:21;27.38;;;11.55;;
68803;SDS011;55787;52.678;13.314;2023-10-19T05:46:51;28.45;;;12.30;;
68803;SDS011;55787;52.678;13.314;2023-10-19T05:49:17;27.87;;;11.97;;
68803;SDS011;55787;52.678;13.314;2023-10-19T05:51:44;25.40;;;11.93;;
68803;SDS011;55787;52.678;13.314;2023-10-19T05:54:11;27.88;;;11.75;;
68803;SDS011;55787;52.678;13.314;2023-10-19T05:56:38;28.48;;;12.40;;
68803;SDS011;55787;52.678;13.314;2023-10-19T05:59:05;29.08;;;11.70;;
68803;SDS011;55787;52.678;13.314;2023-10-19T06:01:33;28.33;;;12.40;;
68803;SDS011;55787;52.678;13.314;2023-10-19T06:03:59;27.85;;;11.75;;
68803;SDS011;55787;52.678;13.314;2023-10-19T06:06:26;33.70;;;13.32;;
68803;SDS011;55787;52.678;13.314;2023-10-19T06:08:53;27.77;;;12.77;;
68803;SDS011;55787;52.678;13.314;2023-10-19T06:11:20;33.28;;;13.70;;
68803;SDS011;55787;52.678;13.314;2023-10-19T06:13:47;31.48;;;13.45;;
68803;SDS011;55787;52.678;13.314;2023-10-19T06:16:14;31.60;;;13.48;;
68803;SDS011;55787;52.678;13.314;2023-10-19T06:18:42;35.42;;;14.05;;
68803;SDS011;55787;52.678;13.314;2023-10-19T06:21:10;30.08;;;13.65;;
68803;SDS011;55787;52.678;13.314;2023-10-19T06:23:38;33.08;;;14.40;;
68803;SDS011;55787;52.678;13.314;2023-10-19T06:26:09;32.73;;;14.50;;
68803;SDS011;55787;52.678;13.314;2023-10-19T06:28:39;34.33;;;14.00;;
68803;SDS011;55787;52.678;13.314;2023-10-19T06:31:07;34.85;;;13.95;;
68803;SDS011;55787;52.678;13.314;2023-10-19T06:33:35;30.90;;;13.20;;
68803;SDS011;55787;52.678;13.314;2023-10-19T06:36:02;31.92;;;14.40;;
68803;SDS011;55787;52.678;13.314;2023-10-19T06:38:30;33.80;;;15.60;;
68803;SDS011;55787;52.678;13.314;2023-10-19T06:40:58;33.08;;;15.25;;
68803;SDS011;55787;52.678;13.314;2023-10-19T06:43:25;35.13;;;15.15;;
68803;SDS011;55787;52.678;13.314;2023-10-19T06:45:58;33.67;;;14.05;;
68803;SDS011;55787;52.678;13.314;2023-10-19T06:48:26;31.73;;;14.35;;
68803;SDS011;55787;52.678;13.314;2023-10-19T06:50:53;33.30;;;14.03;;
68803;SDS011;55787;52.678;13.314;2023-10-19T06:53:21;32.55;;;13.60;;
68803;SDS011;55787;52.678;13.314;2023-10-19T06:55:48;33.58;;;13.70;;
68803;SDS011;55787;52.678;13.314;2023-10-19T06:58:15;30.77;;;13.32;;
68803;SDS011;55787;52.678;13.314;2023-10-19T07:00:45;31.30;;;13.05;;
68803;SDS011;55787;52.678;13.314;2023-10-19T07:03:22;35.20;;;13.47;;
68803;SDS011;55787;52.678;13.314;2023-10-19T07:05:51;34.97;;;13.93;;
68803;SDS011;55787;52.678;13.314;2023-10-19T07:08:18;31.55;;;13.32;;
68803;SDS011;55787;52.678;13.314;2023-10-19T07:10:45;31.42;;;13.10;;
68803;SDS011;55787;52.678;13.314;2023-10-19T07:13:12;31.00;;;13.35;;
68803;SDS011;55787;52.678;13.314;2023-10-19T07:15:38;34.73;;;13.57;;
68803;SDS011;55787;52.678;13.314;2023-10-19T07:18:07;28.75;;;12.80;;
68803;SDS011;55787;52.678;13.314;2023-10-19T07:20:39;32.72;;;13.57;;
68803;SDS011;55787;52.678;13.314;2023-10-19T07:23:05;32.95;;;13.00;;
68803;SDS011;55787;52.678;13.314;2023-10-19T07:25:45;29.60;;;13.10;;
68803;SDS011;55787;52.678;13.314;2023-10-19T07:28:15;31.00;;;13.00;;
68803;SDS011;55787;52.678;13.314;2023-10-19T07:30:42;30.83;;;12.95;;
68803;SDS011;55787;52.678;13.314;2023-10-19T07:33:10;29.20;;;13.13;;
68803;SDS011;55787;52.678;13.314;2023-10-19T07:35:40;32.03;;;12.82;;
68803;SDS011;55787;52.678;13.314;2023-10-19T07:38:09;31.17;;;12.40;;
68803;SDS011;55787;52.678;13.314;2023-10-19T07:40:36;29.07;;;13.37;;
68803;SDS011;55787;52.678;13.314;2023-10-19T07:43:02;33.13;;;14.60;;
68803;SDS011;55787;52.678;13.314;2023-10-19T07:45:30;32.60;;;13.50;;
68803;SDS011;55787;52.678;13.314;2023-10-19T07:47:58;29.67;;;12.70;;
68803;SDS011;55787;52.678;13.314;2023-10-19T07:50:33;30.70;;;12.27;;
68803;SDS011;55787;52.678;13.314;2023-10-19T07:53:00;28.70;;;12.40;;
68803;SDS011;55787;52.678;13.314;2023-10-19T07:55:27;28.83;;;12.18;;
68803;SDS011;55787;52.678;13.314;2023-10-19T07:57:55;29.67;;;12.75;;
68803;SDS011;55787;52.678;13.314;2023-10-19T08:00:22;28.42;;;12.75;;
68803;SDS011;55787;52.678;13.314;2023-10-19T08:02:49;30.42;;;13.35;;
68803;SDS011;55787;52.678;13.314;2023-10-19T08:05:17;29.97;;;12.60;;
68803;SDS011;55787;52.678;13.314;2023-10-19T08:07:45;30.95;;;12.48;;
68803;SDS011;55787;52.678;13.314;2023-10-19T08:10:16;28.83;;;12.77;;
68803;SDS011;55787;52.678;13.314;2023-10-19T08:12:44;31.50;;;13.25;;
68803;SDS011;55787;52.678;13.314;2023-10-19T08:15:14;26.98;;;11.98;;
68803;SDS011;55787;52.678;13.314;2023-10-19T08:17:42;27.03;;;12.20;;
68803;SDS011;55787;52.678;13.314;2023-10-19T08:20:11;28.02;;;11.82;;
68803;SDS011;55787;52.678;13.314;2023-10-19T08:22:57;24.73;;;11.07;;
68803;SDS011;55787;52.678;13.314;2023-10-19T08:25:25;27.27;;;12.23;;
68803;SDS011;55787;52.678;13.314;2023-10-19T08:28:02;26.88;;;12.40;;
68803;SDS011;55787;52.678;13.314;2023-10-19T08:30:28;28.40;;;12.53;;
68803;SDS011;55787;52.678;13.314;2023-10-19T08:32:55;27.23;;;12.65;;
68803;SDS011;55787;52.678;13.314;2023-10-19T08:35:24;30.08;;;12.60;;
68803;SDS011;55787;52.678;13.314;2023-10-19T08:37:55;27.58;;;11.98;;
68803;SDS011;55787;52.678;13.314;2023-10-19T08:40:25;29.67;;;12.45;;
68803;SDS011;55787;52.678;13.314;2023-10-19T08:42:55;33.93;;;17.23;;
68803;SDS011;55787;52.678;13.314;2023-10-19T08:45:22;26.13;;;12.10;;
68803;SDS011;55787;52.678;13.314;2023-10-19T08:47:58;29.10;;;12.65;;
68803;SDS011;55787;52.678;13.314;2023-10-19T08:50:31;25.50;;;11.57;;
68803;SDS011;55787;52.678;13.314;2023-10-19T08:53:02;28.45;;;12.07;;
68803;SDS011;55787;52.678;13.314;2023-10-19T08:55:31;27.93;;;11.80;;
68803;SDS011;55787;52.678;13.314;2023-10-19T08:58:15;29.88;;;12.27;;
68803;SDS011;55787;52.678;13.314;2023-10-19T09:00:47;32.05;;;14.38;;
68803;SDS011;55787;52.678;13.314;2023-10-19T09:03:16;26.98;;;12.25;;
68803;SDS011;55787;52.678;13.314;2023-10-19T09:05:46;28.83;;;13.00;;
68803;SDS011;55787;52.678;13.314;2023-10-19T09:08:14;28.47;;;12.27;;
68803;SDS011;55787;52.678;13.314;2023-10-19T09:10:47;28.38;;;12.68;;
68803;SDS011;55787;52.678;13.314;2023-10-19T09:13:15;27.65;;;11.95;;
68803;SDS011;55787;52.678;13.314;2023-10-19T09:15:45;27.30;;;11.77;;
68803;SDS011;55787;52.678;13.314;2023-10-19T09:18:15;27.00;;;11.77;;
68803;SDS011;55787;52.678;13.314;2023-10-19T09:20:44;26.07;;;11.50;;
68803;SDS011;55787;52.678;13.314;2023-10-19T09:23:34;26.55;;;11.57;;
68803;SDS011;55787;52.678;13.314;2023-10-19T09:26:03;29.42;;;12.20;;
68803;SDS011;55787;52.678;13.314;2023-10-19T09:28:34;28.23;;;12.10;;
68803;SDS011;55787;52.678;13.314;2023-10-19T09:31:03;28.85;;;12.52;;
68803;SDS011;55787;52.678;13.314;2023-10-19T09:33:32;24.97;;;11.90;;
68803;SDS011;55787;52.678;13.314;2023-10-19T09:36:03;27.30;;;12.50;;
68803;SDS011;55787;52.678;13.314;2023-10-19T09:38:31;28.40;;;12.90;;
68803;SDS011;55787;52.678;13.314;2023-10-19T09:40:59;26.65;;;11.93;;
68803;SDS011;55787;52.678;13.314;2023-10-19T09:46:09;26.47;;;11.70;;
68803;SDS011;55787;52.678;13.314;2023-10-19T09:48:41;26.35;;;11.90;;
68803;SDS011;55787;52.678;13.314;2023-10-19T09:51:12;29.15;;;12.18;;
68803;SDS011;55787;52.678;13.314;2023-10-19T09:53:44;26.90;;;12.15;;
68803;SDS011;55787;52.678;13.314;2023-10-19T09:56:24;25.75;;;12.00;;
68803;SDS011;55787;52.678;13.314;2023-10-19T09:58:57;26.23;;;11.93;;
68803;SDS011;55787;52.678;13.314;2023-10-19T10:01:28;24.50;;;11.30;;
68803;SDS011;55787;52.678;13.314;2023-10-19T10:03:55;26.90;;;11.88;;
68803;SDS011;55787;52.678;13.314;2023-10-19T10:06:27;25.55;;;11.77;;
68803;SDS011;55787;52.678;13.314;2023-10-19T10:08:55;28.70;;;12.35;;
68803;SDS011;55787;52.678;13.314;2023-10-19T10:11:25;26.87;;;12.37;;
68803;SDS011;55787;52.678;13.314;2023-10-19T10:13:53;26.13;;;11.40;;
68803;SDS011;55787;52.678;13.314;2023-10-19T10:16:24;28.20;;;12.60;;
68803;SDS011;55787;52.678;13.314;2023-10-19T10:18:57;31.38;;;12.85;;
68803;SDS011;55787;52.678;13.314;2023-10-19T10:21:28;29.70;;;12.35;;
68803;SDS011;55787;52.678;13.314;2023-10-19T10:23:57;27.10;;;11.67;;
68803;SDS011;55787;52.678;13.314;2023-10-19T10:26:29;25.38;;;11.93;;
68803;SDS011;55787;52.678;13.314;2023-10-19T10:29:12;26.75;;;12.00;;
68803;SDS011;55787;52.678;13.314;2023-10-19T10:31:48;26.60;;;11.40;;
68803;SDS011;55787;52.678;13.314;2023-10-19T10:37:04;26.50;;;12.40;;
68803;SDS011;55787;52.678;13.314;2023-10-19T10:39:34;27.83;;;11.77;;
68803;SDS011;55787;52.678;13.314;2023-10-19T10:42:06;29.17;;;12.32;;
68803;SDS011;55787;52.678;13.314;2023-10-19T10:44:35;29.50;;;11.40;;
68803;SDS011;55787;52.678;13.314;2023-10-19T10:47:07;26.95;;;11.95;;
68803;SDS011;55787;52.678;13.314;2023-10-19T10:52:29;26.02;;;12.10;;
68803;SDS011;55787;52.678;13.314;2023-10-19T10:54:59;25.75;;;12.35;;
68803;SDS011;55787;52.678;13.314;2023-10-19T10:57:33;27.65;;;12.07;;
68803;SDS011;55787;52.678;13.314;2023-10-19T11:00:01;26.80;;;11.98;;
68803;SDS011;55787;52.678;13.314;2023-10-19T11:02:36;27.47;;;11.77;;
68803;SDS011;55787;52.678;13.314;2023-10-19T11:05:10;26.35;;;11.93;;
68803;SDS011;55787;52.678;13.314;2023-10-19T11:07:41;25.50;;;11.90;;
68803;SDS011;55787;52.678;13.314;2023-10-19T11:10:41;26.02;;;11.82;;
68803;SDS011;55787;52.678;13.314;2023-10-19T11:13:11;24.77;;;11.40;;
68803;SDS011;55787;52.678;13.314;2023-10-19T11:15:49;28.53;;;11.53;;
68803;SDS011;55787;52.678;13.314;2023-10-19T11:18:40;28.27;;;12.32;;
68803;SDS011;55787;52.678;13.314;2023-10-19T11:21:12;28.08;;;12.38;;
68803;SDS011;55787;52.678;13.314;2023-10-19T11:23:42;27.50;;;12.05;;
68803;SDS011;55787;52.678;13.314;2023-10-19T11:26:11;29.05;;;12.52;;
68803;SDS011;55787;52.678;13.314;2023-10-19T11:28:40;27.83;;;13.07;;
68803;SDS011;55787;52.678;13.314;2023-10-19T11:31:17;29.73;;;12.82;;
68803;SDS011;55787;52.678;13.314;2023-10-19T11:33:45;29.70;;;13.30;;
68803;SDS011;55787;52.678;13.314;2023-10-19T11:36:15;27.75;;;13.65;;
68803;SDS011;55787;52.678;13.314;2023-10-19T11:38:47;32.97;;;13.25;;
68803;SDS011;55787;52.678;13.314;2023-10-19T11:41:15;31.83;;;14.10;;
68803;SDS011;55787;52.678;13.314;2023-10-19T11:43:44;35.05;;;13.23;;
68803;SDS011;55787;52.678;13.314;2023-10-19T11:46:12;31.20;;;14.00;;
68803;SDS011;55787;52.678;13.314;2023-10-19T11:48:41;30.42;;;14.48;;
68803;SDS011;55787;52.678;13.314;2023-10-19T11:51:09;32.08;;;14.05;;
68803;SDS011;55787;52.678;13.314;2023-10-19T11:53:37;31.80;;;14.57;;
68803;SDS011;55787;52.678;13.314;2023-10-19T11:56:08;33.10;;;14.93;;
68803;SDS011;55787;52.678;13.314;2023-10-19T11:58:39;34.03;;;15.60;;
68803;SDS011;55787;52.678;13.314;2023-10-19T12:01:09;32.17;;;15.25;;
68803;SDS011;55787;52.678;13.314;2023-10-19T12:03:40;31.02;;;14.45;;
68803;SDS011;55787;52.678;13.314;2023-10-19T12:06:10;33.63;;;14.90;;
68803;SDS011;55787;52.678;13.314;2023-10-19T12:08:37;32.75;;;13.90;;
68803;SDS011;55787;52.678;13.314;2023-10-19T12:11:04;32.95;;;14.80;;
68803;SDS011;55787;52.678;13.314;2023-10-19T12:13:41;32.92;;;14.98;;
68803;SDS011;55787;52.678;13.314;2023-10-19T12:16:12;35.05;;;16.08;;
68803;SDS011;55787;52.678;13.314;2023-10-19T12:18:39;34.07;;;15.93;;
68803;SDS011;55787;52.678;13.314;2023-10-19T12:21:08;31.00;;;14.88;;
68803;SDS011;55787;52.678;13.314;2023-10-19T12:23:41;32.78;;;16.67;;
68803;SDS011;55787;52.678;13.314;2023-10-19T12:26:17;34.47;;;15.73;;
68803;SDS011;55787;52.678;13.314;2023-10-19T12:28:44;35.22;;;15.90;;
68803;SDS011;55787;52.678;13.314;2023-10-19T12:31:15;31.80;;;15.30;;
68803;SDS011;55787;52.678;13.314;2023-10-19T12:33:45;37.78;;;16.38;;
68803;SDS011;55787;52.678;13.314;2023-10-19T12:36:11;35.83;;;16.00;;
68803;SDS011;55787;52.678;13.314;2023-10-19T12:38:56;34.13;;;15.40;;
68803;SDS011;55787;52.678;13.314;2023-10-19T12:41:23;32.92;;;15.55;;
68803;SDS011;55787;52.678;13.314;2023-10-19T12:43:53;34.37;;;16.10;;
68803;SDS011;55787;52.678;13.314;2023-10-19T12:46:29;35.03;;;15.98;;
68803;SDS011;55787;52.678;13.314;2023-10-19T12:48:56;36.05;;;16.65;;
68803;SDS011;55787;52.678;13.314;2023-10-19T12:51:24;34.65;;;16.38;;
68803;SDS011;55787;52.678;13.314;2023-10-19T12:53:52;37.20;;;16.63;;
68803;SDS011;55787;52.678;13.314;2023-10-19T12:56:19;38.87;;;17.33;;
68803;SDS011;55787;52.678;13.314;2023-10-19T12:58:46;34.72;;;16.75;;
68803;SDS011;55787;52.678;13.314;2023-10-19T13:01:14;36.72;;;16.42;;
68803;SDS011;55787;52.678;13.314;2023-10-19T13:03:45;34.35;;;15.43;;
68803;SDS011;55787;52.678;13.314;2023-10-19T13:06:16;37.95;;;16.92;;
68803;SDS011;55787;52.678;13.314;2023-10-19T13:08:43;36.27;;;17.33;;
68803;SDS011;55787;52.678;13.314;2023-10-19T13:11:10;38.08;;;17.27;;
68803;SDS011;55787;52.678;13.314;2023-10-19T13:13:43;36.97;;;16.10;;
68803;SDS011;55787;52.678;13.314;2023-10-19T13:16:10;35.60;;;16.17;;
68803;SDS011;55787;52.678;13.314;2023-10-19T13:18:37;38.35;;;17.27;;
68803;SDS011;55787;52.678;13.314;2023-10-19T13:21:06;33.67;;;16.03;;
68803;SDS011;55787;52.678;13.314;2023-10-19T13:23:39;36.85;;;16.40;;
68803;SDS011;55787;52.678;13.314;2023-10-19T13:26:05;39.13;;;18.10;;
68803;SDS011;55787;52.678;13.314;2023-10-19T13:28:41;36.08;;;15.85;;
68803;SDS011;55787;52.678;13.314;2023-10-19T13:31:09;35.70;;;16.48;;
68803;SDS011;55787;52.678;13.314;2023-10-19T13:33:36;35.93;;;16.93;;
68803;SDS011;55787;52.678;13.314;2023-10-19T13:36:03;39.15;;;17.77;;
68803;SDS011;55787;52.678;13.314;2023-10-19T13:38:32;34.33;;;16.77;;
68803;SDS011;55787;52.678;13.314;2023-10-19T13:40:59;35.35;;;17.23;;
68803;SDS011;55787;52.678;13.314;2023-10-19T13:43:31;36.90;;;16.90;;
68803;SDS011;55787;52.678;13.314;2023-10-19T13:46:00;41.13;;;18.20;;
68803;SDS011;55787;52.678;13.314;2023-10-19T13:48:28;37.75;;;17.15;;
68803;SDS011;55787;52.678;13.314;2023-10-19T13:50:54;39.70;;;17.55;;
68803;SDS011;55787;52.678;13.314;2023-10-19T13:53:26;37.85;;;16.95;;
68803;SDS011;55787;52.678;13.314;2023-10-19T13:55:53;35.65;;;16.67;;
68803;SDS011;55787;52.678;13.314;2023-10-19T13:58:20;36.87;;;17.33;;
68803;SDS011;55787;52.678;13.314;2023-10-19T14:00:48;35.55;;;16.67;;
68803;SDS011;55787;52.678;13.314;2023-10-19T14:03:15;35.10;;;16.80;;
68803;SDS011;55787;52.678;13.314;2023-10-19T14:05:43;38.78;;;17.27;;
68803;SDS011;55787;52.678;13.314;2023-10-19T14:08:15;38.30;;;18.67;;
68803;SDS011;55787;52.678;13.314;2023-10-19T14:10:46;37.77;;;17.40;;
68803;SDS011;55787;52.678;13.314;2023-10-19T14:13:13;34.10;;;16.83;;
68803;SDS011;55787;52.678;13.314;2023-10-19T14:15:43;35.10;;;16.55;;
68803;SDS011;55787;52.678;13.314;2023-10-19T14:18:10;35.47;;;16.63;;
68803;SDS011;55787;52.678;13.314;2023-10-19T14:20:40;35.42;;;16.95;;
68803;SDS011;55787;52.678;13.314;2023-10-19T14:23:07;36.73;;;17.83;;
68803;SDS011;55787;52.678;13.314;2023-10-19T14:25:37;39.28;;;17.75;;
68803;SDS011;55787;52.678;13.314;2023-10-19T14:28:06;37.90;;;19.15;;
68803;SDS011;55787;52.678;13.314;2023-10-19T14:30:36;36.95;;;18.20;;
68803;SDS011;55787;52.678;13.314;2023-10-19T14:33:03;39.45;;;18.58;;
68803;SDS011;55787;52.678;13.314;2023-10-19T14:35:30;40.20;;;20.80;;
68803;SDS011;55787;52.678;13.314;2023-10-19T14:37:58;37.88;;;18.80;;
68803;SDS011;55787;52.678;13.314;2023-10-19T14:40:27;37.35;;;19.77;;